Time;durP1;ratioP1;P1;durP2;ratioP2;P2;SDS_P1;SDS_P2;PMS_P1;PMS_P2;Temp;Humidity;BMP_temperature;BMP_pressure;BME280_temperature;BME280_humidity;BME280_pressure;Samples;Min_cycle;Max_cycle;Signal;HPM_P1;HPM_P2
2021/10/13 00:02:05;;;;;;;10.50;8.10;;;;;;;6.47;73.54;100202.15;116792;1191;23449;-78
2021/10/13 00:04:35;;;;;;;11.90;8.50;;;;;;;6.50;73.64;100207.23;116553;1190;21886;-79
2021/10/13 00:07:04;;;;;;;10.00;7.70;;;;;;;6.53;73.62;100208.67;116487;1190;22896;-78
2021/10/13 00:09:34;;;;;;;10.40;8.20;;;;;;;6.55;73.46;100209.07;116719;1190;21914;-76
2021/10/13 00:12:07;;;;;;;12.50;7.90;;;;;;;6.53;73.33;100215.69;116344;1193;21939;-78
2021/10/13 00:14:39;;;;;;;11.70;8.90;;;;;;;6.52;73.42;100215.58;116290;1196;21913;-78
2021/10/13 00:17:08;;;;;;;15.40;9.20;;;;;;;6.53;73.36;100213.09;116298;1192;22831;-77
2021/10/13 00:19:38;;;;;;;13.60;9.20;;;;;;;6.54;73.37;100216.82;116139;1197;21924;-76
2021/10/13 00:22:08;;;;;;;11.40;10.20;;;;;;;6.52;73.23;100219.14;116068;1196;22025;-77
2021/10/13 00:24:37;;;;;;;15.20;10.10;;;;;;;6.49;73.27;100218.22;116141;1186;23001;-77
2021/10/13 00:27:09;;;;;;;10.80;9.70;;;;;;;6.46;73.27;100220.58;116232;1195;21978;-77
2021/10/13 00:29:38;;;;;;;11.80;10.40;;;;;;;6.44;73.32;100221.67;116214;1193;22067;-76
2021/10/13 00:32:08;;;;;;;14.40;10.20;;;;;;;6.46;73.50;100224.27;116243;1197;21900;-77
2021/10/13 00:34:37;;;;;;;11.70;10.50;;;;;;;6.46;73.47;100222.32;116212;1196;21888;-77
2021/10/13 00:37:07;;;;;;;12.90;11.40;;;;;;;6.45;73.32;100218.38;116322;1193;21919;-77
2021/10/13 00:39:43;;;;;;;18.40;10.90;;;;;;;6.44;73.31;100217.27;116418;1193;22057;-77
2021/10/13 00:42:14;;;;;;;13.90;10.50;;;;;;;6.44;73.33;100226.19;116516;1191;21878;-78
2021/10/13 00:44:53;;;;;;;12.10;10.90;;;;;;;6.44;73.43;100228.95;116683;1182;22040;-77
2021/10/13 00:47:23;;;;;;;14.20;11.50;;;;;;;6.44;73.34;100231.64;116507;1190;21938;-78
2021/10/13 00:49:52;;;;;;;11.30;10.20;;;;;;;6.41;73.25;100230.71;116511;1195;23448;-77
2021/10/13 00:52:22;;;;;;;11.10;9.90;;;;;;;6.35;73.08;100231.73;116255;1195;21994;-77
2021/10/13 00:54:53;;;;;;;12.90;10.00;;;;;;;6.31;73.05;100237.51;116418;1195;22916;-77
2021/10/13 00:57:23;;;;;;;11.30;10.20;;;;;;;6.30;73.18;100244.80;116352;1190;21910;-77
2021/10/13 00:59:52;;;;;;;13.50;11.30;;;;;;;6.29;73.10;100245.63;116186;1198;21923;-77
2021/10/13 01:02:30;;;;;;;13.90;11.10;;;;;;;6.27;73.15;100246.16;115937;1196;21891;-78
2021/10/13 01:05:32;;;;;;;10.20;9.20;;;;;;;6.26;73.35;100243.08;116096;1196;21941;-76
2021/10/13 01:08:45;;;;;;;10.30;9.30;;;;;;;6.25;73.38;100244.62;116014;1196;22979;-76
2021/10/13 01:11:32;;;;;;;11.40;10.20;;;;;;;6.22;73.43;100242.77;115762;1202;23325;-78
2021/10/13 01:14:19;;;;;;;12.20;9.80;;;;;;;6.21;73.46;100242.66;115748;1202;23579;-78
2021/10/13 01:16:55;;;;;;;14.20;10.90;;;;;;;6.22;73.60;100238.25;115705;1199;21906;-76
2021/10/13 01:20:25;;;;;;;12.60;11.30;;;;;;;6.24;73.75;100237.31;115680;1199;21938;-78
2021/10/13 01:23:37;;;;;;;13.30;10.70;;;;;;;6.24;73.69;100241.54;115522;1202;23502;-76
2021/10/13 01:26:32;;;;;;;15.30;11.00;;;;;;;6.23;73.63;100247.19;116126;1198;24740;-76
2021/10/13 01:29:10;;;;;;;13.70;11.00;;;;;;;6.23;73.66;100249.98;116083;1197;21939;-76
2021/10/13 01:31:49;;;;;;;14.30;11.20;;;;;;;6.24;73.70;100253.96;116078;1198;21915;-75
2021/10/13 01:34:27;;;;;;;12.30;8.90;;;;;;;6.25;73.75;100252.33;115995;1199;22907;-77
2021/10/13 01:37:07;;;;;;;9.70;8.50;;;;;;;6.24;73.68;100253.05;115877;1200;21912;-76
2021/10/13 01:39:45;;;;;;;10.80;8.10;;;;;;;6.23;73.45;100253.52;115904;1200;22022;-76
2021/10/13 01:42:17;;;;;;;10.80;9.10;;;;;;;6.21;73.47;100250.02;115922;1189;21902;-75
2021/10/13 01:44:57;;;;;;;12.90;9.00;;;;;;;6.20;73.47;100249.41;115921;1196;22912;-79
2021/10/13 01:47:32;;;;;;;11.00;9.00;;;;;;;6.19;73.35;100253.41;115903;1200;22905;-76
2021/10/13 01:50:04;;;;;;;13.70;9.70;;;;;;;6.16;73.33;100256.43;116178;1198;22919;-76
2021/10/13 01:52:37;;;;;;;15.60;10.50;;;;;;;6.13;73.42;100257.08;116239;1197;21903;-77
2021/10/13 01:55:08;;;;;;;11.60;9.10;;;;;;;6.11;73.54;100258.43;116154;1196;21909;-77
2021/10/13 01:57:39;;;;;;;9.80;8.80;;;;;;;6.10;73.58;100259.27;116310;1195;22853;-77
2021/10/13 02:00:11;;;;;;;12.40;10.40;;;;;;;6.08;73.54;100258.05;116395;1192;21884;-78
2021/10/13 02:02:43;;;;;;;14.30;11.00;;;;;;;6.06;73.68;100256.95;116772;1192;21930;-77
2021/10/13 02:05:18;;;;;;;13.20;10.60;;;;;;;6.05;73.61;100257.96;116754;1187;21882;-77
2021/10/13 02:07:49;;;;;;;10.60;9.50;;;;;;;6.03;73.63;100257.42;116438;1195;22003;-77
2021/10/13 02:10:22;;;;;;;11.30;10.10;;;;;;;6.02;73.74;100258.28;116450;1193;21885;-77
2021/10/13 02:12:55;;;;;;;14.40;10.90;;;;;;;6.02;73.75;100260.52;116530;1186;22679;-78
2021/10/13 02:15:27;;;;;;;11.10;9.90;;;;;;;6.01;73.76;100260.41;116532;1187;23441;-78
2021/10/13 02:18:00;;;;;;;14.70;12.20;;;;;;;5.99;73.66;100267.79;116762;1181;22920;-77
2021/10/13 02:20:30;;;;;;;15.80;13.10;;;;;;;5.96;73.61;100272.25;116293;1195;21992;-77
2021/10/13 02:23:03;;;;;;;17.70;13.90;;;;;;;5.94;73.63;100281.59;116244;1195;21920;-78
2021/10/13 02:25:39;;;;;;;14.70;12.30;;;;;;;5.90;73.66;100285.52;116432;1192;23566;-77
2021/10/13 02:28:14;;;;;;;11.20;10.20;;;;;;;5.87;73.74;100286.70;116449;1194;23711;-78
2021/10/13 02:30:45;;;;;;;12.60;10.40;;;;;;;5.86;73.82;100289.60;116436;1190;21908;-76
2021/10/13 02:33:14;;;;;;;10.50;9.40;;;;;;;5.85;73.81;100289.63;116498;1192;22927;-76
2021/10/13 02:35:43;;;;;;;16.00;11.00;;;;;;;5.86;73.94;100294.92;116372;1195;22137;-76
2021/10/13 02:38:12;;;;;;;16.40;13.30;;;;;;;5.87;73.98;100295.03;116499;1190;23539;-75
2021/10/13 02:40:42;;;;;;;12.60;11.00;;;;;;;5.86;73.96;100295.67;116634;1191;21904;-77
2021/10/13 02:43:11;;;;;;;14.20;11.20;;;;;;;5.86;74.00;100294.12;116818;1191;23492;-77
2021/10/13 02:46:01;;;;;;;13.70;10.20;;;;;;;5.88;74.18;100295.70;116794;1190;21977;-76
2021/10/13 02:48:34;;;;;;;12.40;9.80;;;;;;;5.88;74.19;100296.52;116939;1186;22626;-76
2021/10/13 02:51:23;;;;;;;12.30;11.00;;;;;;;5.88;74.14;100302.29;117090;1189;21897;-77
2021/10/13 02:54:19;;;;;;;15.40;10.90;;;;;;;5.89;74.14;100306.76;116829;1186;22757;-77
2021/10/13 02:56:53;;;;;;;13.40;12.00;;;;;;;5.87;74.12;100308.98;116774;1190;23457;-77
2021/10/13 02:59:33;;;;;;;11.30;10.00;;;;;;;5.86;74.06;100316.77;116486;1191;22915;-77
2021/10/13 03:02:08;;;;;;;12.60;11.40;;;;;;;5.85;73.96;100314.48;116471;1193;22631;-77
2021/10/13 03:04:43;;;;;;;12.60;11.00;;;;;;;5.86;74.12;100315.41;116509;1190;22280;-77
2021/10/13 03:07:21;;;;;;;13.50;12.00;;;;;;;5.90;74.19;100318.40;116445;1187;21895;-76
2021/10/13 03:09:56;;;;;;;13.90;11.70;;;;;;;5.91;74.11;100315.82;116506;1190;23713;-76
2021/10/13 03:12:33;;;;;;;13.70;12.30;;;;;;;5.90;73.90;100318.77;116415;1193;21896;-74
2021/10/13 03:15:05;;;;;;;12.80;11.50;;;;;;;5.88;74.10;100319.63;116206;1197;21913;-73
2021/10/13 03:17:41;;;;;;;13.20;11.80;;;;;;;5.89;74.13;100327.38;116233;1196;22962;-74
2021/10/13 03:20:12;;;;;;;15.10;13.00;;;;;;;5.92;74.11;100331.70;116246;1196;21903;-77
2021/10/13 03:22:43;;;;;;;15.30;13.70;;;;;;;5.92;74.11;100326.58;116257;1183;22916;-78
2021/10/13 03:25:12;;;;;;;16.30;14.70;;;;;;;5.93;74.15;100330.70;116350;1196;21905;-78
2021/10/13 03:27:41;;;;;;;16.70;15.20;;;;;;;5.95;74.10;100334.61;116341;1193;21902;-78
2021/10/13 03:30:11;;;;;;;16.10;14.50;;;;;;;5.95;74.03;100339.11;116367;1192;21887;-78
2021/10/13 03:32:55;;;;;;;18.50;16.80;;;;;;;5.94;73.97;100337.81;116707;1192;22066;-77
2021/10/13 03:35:31;;;;;;;19.60;17.80;;;;;;;5.94;74.06;100336.23;116903;1189;21929;-76
2021/10/13 03:38:04;;;;;;;17.40;15.80;;;;;;;5.95;74.04;100338.27;116596;1194;23550;-76
2021/10/13 03:40:35;;;;;;;18.00;16.40;;;;;;;5.95;73.99;100344.16;116774;1191;21897;-76
2021/10/13 03:43:12;;;;;;;17.50;16.10;;;;;;;5.94;73.83;100351.11;116571;1190;22910;-77
2021/10/13 03:45:55;;;;;;;18.60;16.90;;;;;;;5.92;73.88;100351.64;116454;1186;23112;-77
2021/10/13 03:48:27;;;;;;;18.30;16.50;;;;;;;5.92;74.00;100356.33;116518;1193;21917;-77
2021/10/13 03:50:56;;;;;;;19.80;17.80;;;;;;;5.94;73.99;100357.95;116529;1193;23451;-77
2021/10/13 03:53:26;;;;;;;18.90;17.10;;;;;;;5.95;74.08;100361.87;116462;1194;21885;-78
2021/10/13 03:55:55;;;;;;;18.60;16.90;;;;;;;5.93;73.94;100367.42;116675;1190;21911;-77
2021/10/13 03:58:25;;;;;;;16.40;14.90;;;;;;;5.91;74.04;100371.44;116771;1191;21920;-77
2021/10/13 04:00:54;;;;;;;18.60;16.80;;;;;;;5.92;74.09;100374.20;116630;1177;21890;-77
2021/10/13 04:03:24;;;;;;;16.20;14.80;;;;;;;5.91;73.95;100378.96;116855;1190;23543;-77
2021/10/13 04:05:57;;;;;;;17.00;15.40;;;;;;;5.90;73.98;100378.68;116867;1190;21941;-77
2021/10/13 04:08:29;;;;;;;18.90;17.30;;;;;;;5.89;73.96;100374.90;116776;1191;21912;-77
2021/10/13 04:11:10;;;;;;;19.00;17.20;;;;;;;5.88;73.98;100376.56;116810;1190;21901;-78
2021/10/13 04:13:40;;;;;;;19.20;17.40;;;;;;;5.89;74.17;100382.11;116781;1187;21877;-77
2021/10/13 04:16:09;;;;;;;18.10;16.60;;;;;;;5.90;74.14;100382.67;116773;1187;21897;-75
2021/10/13 04:18:52;;;;;;;18.50;16.10;;;;;;;5.92;74.11;100383.11;116762;1191;22746;-76
2021/10/13 04:21:23;;;;;;;20.60;18.50;;;;;;;5.92;74.14;100383.92;116778;1190;22964;-75
2021/10/13 04:23:59;;;;;;;19.50;17.60;;;;;;;5.94;74.17;100390.09;116605;1190;22847;-75
2021/10/13 04:26:30;;;;;;;19.30;17.60;;;;;;;5.97;74.21;100393.13;117049;1188;21889;-76
2021/10/13 04:29:13;;;;;;;20.10;18.20;;;;;;;5.97;74.05;100390.16;117053;1188;21877;-77
2021/10/13 04:31:42;;;;;;;18.60;16.80;;;;;;;5.97;73.89;100390.89;116940;1188;21894;-77
2021/10/13 04:34:14;;;;;;;18.60;16.90;;;;;;;5.97;73.94;100388.73;116956;1187;21955;-76
2021/10/13 04:36:44;;;;;;;19.80;18.00;;;;;;;5.97;73.75;100392.45;116788;1191;21915;-76
2021/10/13 04:39:13;;;;;;;20.50;18.80;;;;;;;5.94;73.68;100396.89;116732;1187;23431;-77
2021/10/13 04:41:43;;;;;;;19.00;17.40;;;;;;;5.93;73.75;100402.95;116750;1191;24128;-76
2021/10/13 04:44:24;;;;;;;20.20;18.20;;;;;;;5.92;73.68;100405.61;116613;1191;23501;-77
2021/10/13 04:46:53;;;;;;;21.10;19.30;;;;;;;5.87;73.56;100402.36;116742;1191;21888;-77
2021/10/13 04:49:25;;;;;;;20.70;18.90;;;;;;;5.84;73.58;100399.85;116807;1191;22640;-77
2021/10/13 04:51:59;;;;;;;18.00;16.40;;;;;;;5.79;73.47;100404.33;116851;1191;23672;-78
2021/10/13 04:54:32;;;;;;;19.80;17.80;;;;;;;5.73;73.47;100412.88;116592;1189;21898;-78
2021/10/13 04:57:03;;;;;;;20.10;18.20;;;;;;;5.68;73.49;100410.16;116521;1193;21902;-77
2021/10/13 04:59:33;;;;;;;20.20;18.40;;;;;;;5.65;73.58;100412.67;116200;1196;21903;-76
2021/10/13 05:02:03;;;;;;;19.90;18.10;;;;;;;5.63;73.53;100418.10;116028;1196;21930;-79
2021/10/13 05:04:35;;;;;;;19.60;17.60;;;;;;;5.59;73.59;100417.63;115947;1198;21997;-79
2021/10/13 05:07:08;;;;;;;20.40;18.50;;;;;;;5.54;73.68;100419.95;115974;1199;21913;-79
2021/10/13 05:09:44;;;;;;;19.40;17.70;;;;;;;5.52;73.75;100418.75;116002;1198;23553;-79
2021/10/13 05:12:22;;;;;;;20.90;19.00;;;;;;;5.49;73.83;100418.98;116024;1198;22637;-79
2021/10/13 05:14:56;;;;;;;21.70;19.50;;;;;;;5.48;74.02;100418.24;115694;1200;21912;-79
2021/10/13 05:17:41;;;;;;;21.40;19.40;;;;;;;5.47;73.98;100417.23;116089;1196;23451;-78
2021/10/13 05:20:14;;;;;;;21.20;19.10;;;;;;;5.48;74.15;100421.19;116306;1193;21946;-78
2021/10/13 05:22:51;;;;;;;23.90;21.40;;;;;;;5.48;73.95;100425.73;116824;1192;23038;-78
2021/10/13 05:25:22;;;;;;;24.50;22.10;;;;;;;5.49;74.08;100430.38;116550;1192;21944;-78
2021/10/13 05:27:52;;;;;;;26.60;23.90;;;;;;;5.50;74.09;100436.92;116588;1192;21899;-79
2021/10/13 05:30:25;;;;;;;25.20;22.70;;;;;;;5.49;73.97;100449.55;116553;1192;21904;-79
2021/10/13 05:32:55;;;;;;;24.10;21.60;;;;;;;5.50;74.10;100451.25;116481;1190;21888;-75
2021/10/13 05:35:24;;;;;;;23.60;21.20;;;;;;;5.52;74.16;100456.65;116862;1187;22335;-74
2021/10/13 05:37:53;;;;;;;24.90;22.60;;;;;;;5.52;74.26;100458.01;116812;1190;21905;-74
2021/10/13 05:40:29;;;;;;;23.20;20.80;;;;;;;5.52;74.24;100459.45;116888;1190;21898;-74
2021/10/13 05:43:24;;;;;;;22.90;20.70;;;;;;;5.52;74.24;100465.73;116814;1181;22907;-76
2021/10/13 05:45:55;;;;;;;22.80;20.70;;;;;;;5.52;74.24;100470.08;116812;1184;22981;-75
2021/10/13 05:48:24;;;;;;;24.80;22.40;;;;;;;5.55;74.34;100478.04;116796;1187;21937;-75
2021/10/13 05:50:54;;;;;;;28.80;26.00;;;;;;;5.59;74.36;100489.73;116808;1188;22258;-75
2021/10/13 05:53:25;;;;;;;30.90;28.00;;;;;;;5.63;74.52;100489.35;117083;1188;21889;-74
2021/10/13 05:55:58;;;;;;;29.10;26.50;;;;;;;5.67;74.43;100496.10;116528;1190;22090;-74
2021/10/13 05:58:41;;;;;;;29.90;26.90;;;;;;;5.69;74.41;100498.30;116751;1191;22992;-75
2021/10/13 06:01:11;;;;;;;27.90;24.50;;;;;;;5.73;74.27;100495.56;116418;1194;23539;-75
2021/10/13 06:03:40;;;;;;;25.10;22.50;;;;;;;5.72;74.29;100501.71;116448;1190;22653;-75
2021/10/13 06:06:09;;;;;;;26.00;23.10;;;;;;;5.75;74.32;100507.11;116427;1190;22057;-74
2021/10/13 06:08:38;;;;;;;25.10;22.50;;;;;;;5.77;74.23;100511.80;116467;1194;21928;-75
2021/10/13 06:11:08;;;;;;;24.20;21.80;;;;;;;5.79;74.26;100514.59;116423;1193;22915;-75
2021/10/13 06:13:39;;;;;;;26.00;23.40;;;;;;;5.82;74.42;100523.22;116293;1194;23432;-76
2021/10/13 06:16:10;;;;;;;27.80;25.10;;;;;;;5.85;74.23;100527.73;116521;1190;22670;-77
2021/10/13 06:18:40;;;;;;;28.90;24.80;;;;;;;5.86;74.12;100531.98;116555;1190;22881;-76
2021/10/13 06:21:11;;;;;;;27.30;24.40;;;;;;;5.86;74.04;100534.91;116915;1187;22716;-78
2021/10/13 06:23:44;;;;;;;30.00;27.00;;;;;;;5.87;74.00;100536.95;117180;1186;21895;-74
2021/10/13 06:26:14;;;;;;;30.70;27.10;;;;;;;5.88;74.03;100537.90;117030;1188;22034;-74
2021/10/13 06:28:43;;;;;;;30.00;26.90;;;;;;;5.91;74.04;100542.24;117025;1187;21901;-74
2021/10/13 06:31:13;;;;;;;31.10;28.10;;;;;;;5.90;73.90;100543.31;116923;1188;21884;-74
2021/10/13 06:33:43;;;;;;;29.70;26.50;;;;;;;5.91;74.01;100543.80;116579;1178;22919;-74
2021/10/13 06:36:14;;;;;;;32.50;29.00;;;;;;;5.94;74.16;100543.17;116770;1191;21926;-74
2021/10/13 06:38:43;;;;;;;30.00;26.80;;;;;;;5.99;74.22;100546.63;116723;1184;22287;-74
2021/10/13 06:41:15;;;;;;;31.80;24.10;;;;;;;6.02;74.20;100548.98;116619;1188;23750;-74
2021/10/13 06:43:44;;;;;;;25.30;22.60;;;;;;;6.05;74.12;100553.08;116759;1191;21884;-74
2021/10/13 06:46:13;;;;;;;24.30;21.90;;;;;;;6.08;74.15;100554.19;116779;1191;23547;-74
2021/10/13 06:48:43;;;;;;;24.80;22.40;;;;;;;6.11;74.04;100553.92;116835;1190;23541;-74
2021/10/13 06:51:12;;;;;;;25.30;22.70;;;;;;;6.15;73.98;100559.08;117050;1187;22520;-73
2021/10/13 06:53:46;;;;;;;;;;;;;;;6.17;73.95;100568.68;116927;1187;21903;-74
2021/10/13 06:56:16;;;;;;;25.80;23.20;;;;;;;6.10;73.77;100569.63;116846;1188;21906;-74
2021/10/13 06:58:45;;;;;;;28.00;25.30;;;;;;;6.07;73.93;100567.71;117052;1187;22845;-74
2021/10/13 07:01:16;;;;;;;28.00;25.30;;;;;;;6.11;73.97;100573.52;116909;1188;22081;-75
2021/10/13 07:03:46;;;;;;;26.20;23.70;;;;;;;6.16;74.17;100577.13;116856;1188;23354;-74
2021/10/13 07:06:15;;;;;;;26.50;23.90;;;;;;;6.20;74.08;100578.90;116962;1188;23548;-74
2021/10/13 07:08:46;;;;;;;25.60;23.20;;;;;;;6.24;74.10;100584.10;116746;1188;21900;-75
2021/10/13 07:11:21;;;;;;;27.30;24.60;;;;;;;6.30;74.27;100587.30;116751;1190;22877;-74
2021/10/13 07:13:52;;;;;;;25.80;23.20;;;;;;;6.34;74.26;100589.91;116482;1193;21917;-74
2021/10/13 07:16:21;;;;;;;27.00;24.40;;;;;;;6.38;74.15;100589.95;116421;1194;21900;-74
2021/10/13 07:18:51;;;;;;;28.70;25.90;;;;;;;6.41;74.15;100593.66;116429;1194;21899;-74
2021/10/13 07:21:21;;;;;;;25.20;22.50;;;;;;;6.45;74.15;100594.52;116432;1193;21896;-75
2021/10/13 07:23:50;;;;;;;27.50;24.70;;;;;;;6.49;74.11;100598.04;116477;1190;21906;-75
2021/10/13 07:26:19;;;;;;;29.70;26.60;;;;;;;6.52;74.22;100598.42;116471;1191;21886;-77
2021/10/13 07:28:48;;;;;;;28.70;25.60;;;;;;;6.57;74.31;100600.48;116759;1190;23499;-75
2021/10/13 07:31:18;;;;;;;29.00;26.10;;;;;;;6.62;74.37;100599.50;116807;1188;22202;-75
2021/10/13 07:33:47;;;;;;;29.00;26.10;;;;;;;6.69;74.36;100601.23;117082;1188;21884;-74
2021/10/13 07:36:16;;;;;;;27.30;24.50;;;;;;;6.74;74.29;100602.79;116817;1190;21883;-75
2021/10/13 07:38:47;;;;;;;28.00;25.00;;;;;;;6.79;74.13;100606.54;116893;1182;22947;-75
2021/10/13 07:41:18;;;;;;;26.50;24.20;;;;;;;6.85;74.19;100608.67;116768;1190;23437;-75
2021/10/13 07:43:47;;;;;;;28.60;25.70;;;;;;;6.88;74.00;100611.15;116831;1187;21929;-75
2021/10/13 07:46:16;;;;;;;26.90;24.10;;;;;;;6.93;73.92;100613.04;116931;1190;23501;-77
2021/10/13 07:48:45;;;;;;;27.40;24.70;;;;;;;6.97;73.99;100615.08;116916;1189;22848;-76
2021/10/13 07:51:14;;;;;;;27.50;24.30;;;;;;;7.07;74.26;100621.94;116808;1185;22104;-75
2021/10/13 07:53:43;;;;;;;24.60;22.10;;;;;;;7.15;74.14;100628.55;116458;1191;22910;-76
2021/10/13 07:56:13;;;;;;;27.00;24.50;;;;;;;7.21;74.08;100628.91;116576;1191;22913;-75
2021/10/13 07:58:42;;;;;;;24.00;21.60;;;;;;;7.28;74.03;100627.55;116737;1191;21932;-75
2021/10/13 08:01:12;;;;;;;22.60;20.30;;;;;;;7.37;73.99;100619.40;116558;1191;23545;-74
2021/10/13 08:03:42;;;;;;;22.80;20.70;;;;;;;7.46;74.01;100623.56;116538;1191;22866;-75
2021/10/13 08:06:11;;;;;;;22.60;20.30;;;;;;;7.58;73.93;100627.45;116748;1187;24150;-75
2021/10/13 08:08:42;;;;;;;33.20;27.10;;;;;;;7.66;73.75;100625.25;116691;1190;23539;-75
2021/10/13 08:11:11;;;;;;;22.10;19.90;;;;;;;7.78;73.89;100627.63;116761;1182;21965;-76
2021/10/13 08:13:40;;;;;;;20.80;18.50;;;;;;;7.93;73.81;100623.84;116897;1176;22913;-75
2021/10/13 08:16:10;;;;;;;15.60;14.20;;;;;;;8.05;73.52;100625.65;117058;1188;21999;-75
2021/10/13 08:18:41;;;;;;;17.50;15.90;;;;;;;8.14;72.99;100623.59;117009;1188;22731;-75
2021/10/13 08:21:10;;;;;;;16.40;14.80;;;;;;;8.22;72.67;100626.52;116834;1188;21899;-75
2021/10/13 08:23:40;;;;;;;18.60;17.00;;;;;;;8.28;72.24;100629.45;116929;1188;22027;-75
2021/10/13 08:26:09;;;;;;;14.90;13.40;;;;;;;8.29;71.58;100626.77;116839;1190;21882;-75
2021/10/13 08:28:39;;;;;;;15.60;13.40;;;;;;;8.33;71.73;100628.14;116794;1187;24109;-75
2021/10/13 08:31:08;;;;;;;19.20;17.30;;;;;;;8.46;72.24;100630.58;116756;1192;21921;-74
2021/10/13 08:33:39;;;;;;;19.10;15.40;;;;;;;8.59;71.91;100628.50;116750;1192;22868;-75
2021/10/13 08:36:09;;;;;;;14.30;13.00;;;;;;;8.67;71.41;100632.63;116597;1193;22899;-74
2021/10/13 08:38:38;;;;;;;13.80;12.40;;;;;;;8.77;71.42;100630.89;116647;1193;21936;-74
2021/10/13 08:41:11;;;;;;;14.30;12.90;;;;;;;8.90;71.42;100627.33;116658;1193;21902;-74
2021/10/13 08:43:44;;;;;;;13.10;11.80;;;;;;;9.05;71.27;100632.54;116639;1190;21992;-74
2021/10/13 08:46:14;;;;;;;14.40;13.10;;;;;;;9.22;71.15;100634.55;116552;1193;22687;-74
2021/10/13 08:48:43;;;;;;;15.10;13.80;;;;;;;9.36;70.57;100636.47;116549;1191;23625;-74
2021/10/13 08:51:15;;;;;;;13.30;12.20;;;;;;;9.48;70.00;100634.52;116432;1195;23471;-73
2021/10/13 08:53:44;;;;;;;13.20;11.60;;;;;;;9.59;69.62;100631.75;116410;1192;21912;-74
2021/10/13 08:56:14;;;;;;;14.40;13.00;;;;;;;9.65;69.05;100634.63;116440;1195;21940;-75
2021/10/13 08:58:44;;;;;;;13.90;12.70;;;;;;;9.71;68.81;100641.45;116495;1191;22426;-75
2021/10/13 09:01:14;;;;;;;15.70;14.20;;;;;;;9.83;69.05;100648.89;116407;1195;23581;-75
2021/10/13 09:03:48;;;;;;;14.00;12.70;;;;;;;9.96;68.87;100656.66;116296;1196;21922;-75
2021/10/13 09:06:29;;;;;;;14.60;13.00;;;;;;;10.06;68.19;100655.30;116243;1195;21898;-75
2021/10/13 09:09:08;;;;;;;16.20;14.50;;;;;;;10.04;67.16;100658.13;116295;1187;22979;-75
2021/10/13 09:11:52;;;;;;;21.70;17.20;;;;;;;10.03;66.99;100659.86;116231;1196;23039;-73
2021/10/13 09:14:28;;;;;;;15.50;11.90;;;;;;;10.07;67.22;100660.84;116225;1196;23474;-74
2021/10/13 09:17:03;;;;;;;11.50;10.30;;;;;;;10.10;67.12;100666.17;116533;1191;21904;-75
2021/10/13 09:19:47;;;;;;;12.90;9.50;;;;;;;10.18;67.23;100670.30;116742;1191;22655;-75
2021/10/13 09:22:18;;;;;;;15.10;10.50;;;;;;;10.20;66.72;100667.80;116768;1188;23537;-75
2021/10/13 09:24:51;;;;;;;11.80;10.50;;;;;;;10.20;66.47;100667.08;117093;1188;21956;-74
2021/10/13 09:27:23;;;;;;;14.00;12.60;;;;;;;10.23;66.46;100667.09;116827;1188;21889;-75
2021/10/13 09:30:12;;;;;;;19.60;15.40;;;;;;;10.29;66.60;100666.29;116728;1190;22913;-75
2021/10/13 09:32:44;;;;;;;17.70;13.90;;;;;;;10.40;66.38;100667.49;116511;1191;22869;-75
2021/10/13 09:35:14;;;;;;;11.60;10.40;;;;;;;10.50;66.12;100668.75;116617;1191;22412;-76
2021/10/13 09:37:49;;;;;;;11.70;10.20;;;;;;;10.61;66.07;100671.47;116732;1191;21909;-73
2021/10/13 09:40:33;;;;;;;10.50;9.20;;;;;;;10.68;65.23;100677.67;116509;1193;22229;-73
2021/10/13 09:43:02;;;;;;;10.80;9.20;;;;;;;10.67;64.72;100683.73;116455;1196;21893;-75
2021/10/13 09:45:37;;;;;;;11.30;10.00;;;;;;;10.66;64.55;100684.70;116256;1193;21894;-78
2021/10/13 09:48:07;;;;;;;14.50;10.40;;;;;;;10.68;64.61;100687.83;116284;1190;22001;-75
2021/10/13 09:50:46;;;;;;;9.30;8.00;;;;;;;10.68;64.40;100688.91;116305;1195;22374;-75
2021/10/13 09:53:27;;;;;;;10.30;7.40;;;;;;;10.65;63.93;100691.33;116444;1195;21920;-75
2021/10/13 09:55:57;;;;;;;10.20;7.90;;;;;;;10.55;63.59;100689.05;116404;1195;21902;-75
2021/10/13 09:58:31;;;;;;;13.00;9.10;;;;;;;10.49;63.77;100684.90;116455;1194;21893;-76
2021/10/13 10:01:14;;;;;;;9.80;7.10;;;;;;;10.51;64.08;100691.37;116616;1190;23476;-76
2021/10/13 10:03:47;;;;;;;13.50;8.00;;;;;;;10.52;63.95;100694.23;116723;1187;21964;-75
2021/10/13 10:06:17;;;;;;;9.20;7.60;;;;;;;10.54;63.96;100694.00;116815;1190;23000;-74
2021/10/13 10:08:54;;;;;;;10.70;7.30;;;;;;;10.54;63.84;100691.23;116496;1190;21873;-74
2021/10/13 10:11:46;;;;;;;9.50;8.50;;;;;;;10.54;63.83;100692.25;116515;1193;22917;-74
2021/10/13 10:14:40;;;;;;;10.10;9.00;;;;;;;10.52;63.80;100696.88;116477;1193;21898;-76
2021/10/13 10:17:15;;;;;;;8.00;7.10;;;;;;;10.52;64.08;100695.45;116545;1194;21896;-75
2021/10/13 10:19:48;;;;;;;12.50;8.90;;;;;;;10.56;64.18;100698.39;116531;1193;21972;-74
2021/10/13 10:22:21;;;;;;;13.00;10.10;;;;;;;10.58;63.80;100701.71;116454;1191;21990;-74
2021/10/13 10:24:56;;;;;;;14.20;10.50;;;;;;;10.55;63.56;100703.41;116477;1193;22381;-74
2021/10/13 10:27:33;;;;;;;9.50;8.50;;;;;;;10.54;63.53;100698.39;116553;1193;21886;-74
2021/10/13 10:30:08;;;;;;;7.30;6.40;;;;;;;10.56;63.78;100696.10;116439;1193;21908;-74
2021/10/13 10:33:04;;;;;;;10.70;7.40;;;;;;;10.59;63.58;100695.15;116924;1191;21883;-79
2021/10/13 10:35:45;;;;;;;7.30;6.10;;;;;;;10.58;63.49;100697.02;117226;1189;21865;-80
2021/10/13 10:38:52;;;;;;;6.40;5.60;;;;;;;10.57;63.59;100696.95;117320;1187;22915;-80
2021/10/13 10:41:56;;;;;;;6.60;5.60;;;;;;;10.57;63.86;100694.21;117194;1187;22428;-80
2021/10/13 10:44:39;;;;;;;8.00;6.10;;;;;;;10.57;63.89;100690.19;117131;1189;21900;-79
2021/10/13 10:47:17;;;;;;;8.90;6.50;;;;;;;10.61;64.08;100690.03;117188;1188;22212;-79
2021/10/13 10:49:56;;;;;;;10.40;7.80;;;;;;;10.70;64.34;100693.84;117015;1190;21958;-79
2021/10/13 10:52:32;;;;;;;12.70;8.00;;;;;;;10.81;64.38;100692.27;116846;1190;23436;-79
2021/10/13 10:55:32;;;;;;;7.30;6.60;;;;;;;10.93;64.35;100695.73;116533;1194;22867;-79
2021/10/13 10:58:33;;;;;;;8.70;7.00;;;;;;;11.02;63.87;100699.36;116608;1189;21876;-80
2021/10/13 11:01:45;;;;;;;7.60;6.70;;;;;;;11.11;63.60;100698.32;116354;1187;21891;-79
2021/10/13 11:04:40;;;;;;;7.10;6.30;;;;;;;11.15;63.12;100699.48;116450;1190;22399;-78
2021/10/13 11:07:36;;;;;;;7.80;5.90;;;;;;;11.14;62.87;100707.70;116614;1192;22000;-79
2021/10/13 11:10:10;;;;;;;10.40;6.90;;;;;;;11.11;62.65;100704.84;116556;1193;22312;-79
2021/10/13 11:12:58;;;;;;;9.30;6.70;;;;;;;11.08;62.73;100708.99;116680;1189;23479;-79
2021/10/13 11:15:36;;;;;;;7.00;5.70;;;;;;;11.04;62.80;100708.30;117021;1187;21888;-79
2021/10/13 11:18:11;;;;;;;7.30;6.00;;;;;;;11.01;62.85;100703.02;117337;1188;21885;-79
2021/10/13 11:20:48;;;;;;;10.50;5.40;;;;;;;11.00;62.86;100705.11;117403;1185;21888;-79
2021/10/13 11:23:24;;;;;;;9.10;5.60;;;;;;;11.01;62.87;100705.48;116925;1190;21900;-79
2021/10/13 11:25:57;;;;;;;9.90;6.40;;;;;;;11.02;62.71;100701.31;116893;1190;21949;-77
2021/10/13 11:28:36;;;;;;;6.50;4.90;;;;;;;11.03;62.63;100703.20;116852;1190;22107;-78
2021/10/13 11:31:11;;;;;;;6.20;5.50;;;;;;;11.04;62.59;100703.58;116836;1190;23634;-77
2021/10/13 11:34:08;;;;;;;9.50;5.50;;;;;;;11.02;62.44;100704.34;116862;1190;22625;-79
2021/10/13 11:36:53;;;;;;;9.00;5.20;;;;;;;10.99;62.76;100704.52;116988;1184;21983;-79
2021/10/13 11:40:06;;;;;;;;;;;;;;;;;;;;;
2021/10/13 11:42:44;;;;;;;7.20;6.10;;;;;;;11.20;63.56;100700.04;116657;1191;21978;-78
2021/10/13 11:45:22;;;;;;;7.70;6.90;;;;;;;11.34;63.48;100701.86;116775;1191;22130;-79
2021/10/13 11:48:09;;;;;;;7.60;5.50;;;;;;;11.45;63.09;100698.90;116531;1193;22953;-79